sensor_id;sensor_type;location;lat;lon;timestamp;pressure;altitude;pressure_sealevel;temperature;humidity
829;BME280;396;52.558;13.188;2022-08-19T00:00:21;100499.47;;;21.53;100.00
829;BME280;396;52.558;13.188;2022-08-19T00:02:48;100493.56;;;21.54;100.00
829;BME280;396;52.558;13.188;2022-08-19T00:05:17;100487.31;;;21.57;100.00
829;BME280;396;52.558;13.188;2022-08-19T00:07:44;100484.53;;;21.57;100.00
829;BME280;396;52.558;13.188;2022-08-19T00:10:13;100488.97;;;21.65;100.00
829;BME280;396;52.558;13.188;2022-08-19T00:12:41;100490.16;;;21.68;100.00
829;BME280;396;52.558;13.188;2022-08-19T00:15:11;100486.22;;;21.69;100.00
829;BME280;396;52.558;13.188;2022-08-19T00:17:39;100478.38;;;21.71;100.00
829;BME280;396;52.558;13.188;2022-08-19T00:20:07;100483.50;;;21.73;100.00
829;BME280;396;52.558;13.188;2022-08-19T00:22:35;100487.88;;;21.74;100.00
829;BME280;396;52.558;13.188;2022-08-19T00:25:02;100489.03;;;21.73;100.00
829;BME280;396;52.558;13.188;2022-08-19T00:27:29;100470.84;;;21.68;100.00
829;BME280;396;52.558;13.188;2022-08-19T00:29:57;100473.25;;;21.73;100.00
829;BME280;396;52.558;13.188;2022-08-19T00:32:23;100473.25;;;21.73;100.00
829;BME280;396;52.558;13.188;2022-08-19T00:34:50;100475.63;;;21.71;100.00
829;BME280;396;52.558;13.188;2022-08-19T00:37:18;100484.34;;;21.77;100.00
829;BME280;396;52.558;13.188;2022-08-19T00:39:47;100482.84;;;21.83;100.00
829;BME280;396;52.558;13.188;2022-08-19T00:42:14;100482.47;;;21.88;100.00
829;BME280;396;52.558;13.188;2022-08-19T00:44:41;100483.66;;;21.90;100.00
829;BME280;396;52.558;13.188;2022-08-19T00:47:09;100481.34;;;21.92;100.00
829;BME280;396;52.558;13.188;2022-08-19T00:49:40;100480.16;;;21.94;100.00
829;BME280;396;52.558;13.188;2022-08-19T00:52:11;100488.78;;;21.88;100.00
829;BME280;396;52.558;13.188;2022-08-19T00:54:39;100484.84;;;21.89;100.00
829;BME280;396;52.558;13.188;2022-08-19T01:17:17;100466.38;;;21.94;100.00
829;BME280;396;52.558;13.188;2022-08-19T01:19:45;100473.00;;;21.85;100.00
829;BME280;396;52.558;13.188;2022-08-19T01:22:17;100463.94;;;21.85;100.00
829;BME280;396;52.558;13.188;2022-08-19T01:24:47;100470.53;;;21.77;100.00
829;BME280;396;52.558;13.188;2022-08-19T01:27:13;100469.31;;;21.71;100.00
829;BME280;396;52.558;13.188;2022-08-19T01:29:41;100476.78;;;21.70;100.00
829;BME280;396;52.558;13.188;2022-08-19T01:32:11;100479.91;;;21.69;100.00
829;BME280;396;52.558;13.188;2022-08-19T01:34:39;100492.91;;;21.68;100.00
829;BME280;396;52.558;13.188;2022-08-19T01:37:07;100493.69;;;21.69;100.00
829;BME280;396;52.558;13.188;2022-08-19T01:39:37;100510.22;;;21.65;100.00
829;BME280;396;52.558;13.188;2022-08-19T01:42:05;100505.13;;;21.67;100.00
829;BME280;396;52.558;13.188;2022-08-19T01:44:35;100506.66;;;21.61;100.00
829;BME280;396;52.558;13.188;2022-08-19T01:47:02;100515.69;;;21.61;100.00
829;BME280;396;52.558;13.188;2022-08-19T01:49:29;100520.03;;;21.62;100.00
829;BME280;396;52.558;13.188;2022-08-19T01:51:56;100530.69;;;21.64;100.00
829;BME280;396;52.558;13.188;2022-08-19T01:54:23;100531.47;;;21.64;100.00
829;BME280;396;52.558;13.188;2022-08-19T01:56:51;100520.78;;;21.59;100.00
829;BME280;396;52.558;13.188;2022-08-19T01:59:20;100523.50;;;21.56;100.00
829;BME280;396;52.558;13.188;2022-08-19T02:01:49;100521.13;;;21.54;100.00
829;BME280;396;52.558;13.188;2022-08-19T02:04:15;100529.78;;;21.53;100.00
829;BME280;396;52.558;13.188;2022-08-19T02:06:42;100542.78;;;21.56;100.00
829;BME280;396;52.558;13.188;2022-08-19T02:09:08;100545.47;;;21.49;100.00
829;BME280;396;52.558;13.188;2022-08-19T02:11:36;100545.81;;;21.44;100.00
829;BME280;396;52.558;13.188;2022-08-19T02:14:06;100544.56;;;21.37;100.00
829;BME280;396;52.558;13.188;2022-08-19T02:16:35;100532.72;;;21.37;100.00
829;BME280;396;52.558;13.188;2022-08-19T02:19:04;100514.63;;;21.36;100.00
829;BME280;396;52.558;13.188;2022-08-19T02:21:30;100502.69;;;21.28;100.00
829;BME280;396;52.558;13.188;2022-08-19T02:23:57;100493.59;;;21.24;100.00
829;BME280;396;52.558;13.188;2022-08-19T02:26:24;100487.56;;;21.15;100.00
829;BME280;396;52.558;13.188;2022-08-19T02:28:52;100479.31;;;21.15;100.00
829;BME280;396;52.558;13.188;2022-08-19T02:31:21;100475.72;;;21.11;100.00
829;BME280;396;52.558;13.188;2022-08-19T02:33:49;100454.06;;;21.09;100.00
829;BME280;396;52.558;13.188;2022-08-19T02:36:17;100429.63;;;21.04;100.00
829;BME280;396;52.558;13.188;2022-08-19T02:38:44;100404.38;;;20.99;100.00
829;BME280;396;52.558;13.188;2022-08-19T02:41:14;100399.56;;;20.92;100.00
829;BME280;396;52.558;13.188;2022-08-19T02:43:41;100389.56;;;20.80;100.00
829;BME280;396;52.558;13.188;2022-08-19T02:46:14;100387.59;;;20.77;100.00
829;BME280;396;52.558;13.188;2022-08-19T02:48:43;100390.19;;;20.66;100.00
829;BME280;396;52.558;13.188;2022-08-19T02:51:15;100394.88;;;20.62;100.00
829;BME280;396;52.558;13.188;2022-08-19T02:53:42;100387.72;;;20.58;100.00
829;BME280;396;52.558;13.188;2022-08-19T02:56:09;100379.06;;;20.56;100.00
829;BME280;396;52.558;13.188;2022-08-19T02:58:35;100381.50;;;20.61;100.00
829;BME280;396;52.558;13.188;2022-08-19T03:01:02;100386.66;;;20.66;100.00
829;BME280;396;52.558;13.188;2022-08-19T03:03:29;100378.34;;;20.59;100.00
829;BME280;396;52.558;13.188;2022-08-19T03:06:08;100383.41;;;20.57;100.00
829;BME280;396;52.558;13.188;2022-08-19T03:08:39;100372.72;;;20.52;100.00
829;BME280;396;52.558;13.188;2022-08-19T03:11:11;100382.16;;;20.51;100.00
829;BME280;396;52.558;13.188;2022-08-19T03:13:38;100397.34;;;20.45;100.00
829;BME280;396;52.558;13.188;2022-08-19T03:16:05;100399.84;;;20.53;100.00
829;BME280;396;52.558;13.188;2022-08-19T03:18:32;100397.09;;;20.53;100.00
829;BME280;396;52.558;13.188;2022-08-19T03:20:58;100389.66;;;20.54;100.00
829;BME280;396;52.558;13.188;2022-08-19T03:23:25;100385.31;;;20.53;100.00
829;BME280;396;52.558;13.188;2022-08-19T03:25:53;100385.69;;;20.51;100.00
829;BME280;396;52.558;13.188;2022-08-19T03:28:20;100383.00;;;20.55;100.00
829;BME280;396;52.558;13.188;2022-08-19T03:30:57;100386.59;;;20.59;100.00
829;BME280;396;52.558;13.188;2022-08-19T03:33:24;100397.53;;;20.55;100.00
829;BME280;396;52.558;13.188;2022-08-19T03:36:08;100399.19;;;20.60;100.00
829;BME280;396;52.558;13.188;2022-08-19T03:38:41;100401.66;;;20.69;100.00
829;BME280;396;52.558;13.188;2022-08-19T03:41:12;100388.72;;;20.73;100.00
829;BME280;396;52.558;13.188;2022-08-19T03:43:39;100379.97;;;20.67;100.00
829;BME280;396;52.558;13.188;2022-08-19T03:46:09;100378.41;;;20.66;100.00
829;BME280;396;52.558;13.188;2022-08-19T03:48:36;100382.34;;;20.65;100.00
829;BME280;396;52.558;13.188;2022-08-19T03:51:04;100391.75;;;20.64;100.00
829;BME280;396;52.558;13.188;2022-08-19T03:53:32;100390.19;;;20.66;100.00
829;BME280;396;52.558;13.188;2022-08-19T03:56:00;100388.66;;;20.69;100.00
829;BME280;396;52.558;13.188;2022-08-19T03:58:29;100398.13;;;20.72;100.00
829;BME280;396;52.558;13.188;2022-08-19T04:00:56;100397.66;;;20.66;100.00
829;BME280;396;52.558;13.188;2022-08-19T04:03:23;100400.44;;;20.66;100.00
829;BME280;396;52.558;13.188;2022-08-19T04:05:49;100404.41;;;20.69;100.00
829;BME280;396;52.558;13.188;2022-08-19T04:08:16;100399.63;;;20.65;100.00
829;BME280;396;52.558;13.188;2022-08-19T04:10:44;100390.91;;;20.60;100.00
829;BME280;396;52.558;13.188;2022-08-19T04:13:10;100392.50;;;20.61;100.00
829;BME280;396;52.558;13.188;2022-08-19T04:15:40;100395.31;;;20.64;100.00
829;BME280;396;52.558;13.188;2022-08-19T04:18:07;100395.34;;;20.68;100.00
829;BME280;396;52.558;13.188;2022-08-19T04:20:39;100394.56;;;20.68;100.00
829;BME280;396;52.558;13.188;2022-08-19T04:23:06;100398.84;;;20.65;100.00
829;BME280;396;52.558;13.188;2022-08-19T04:25:37;100404.00;;;20.70;100.00
829;BME280;396;52.558;13.188;2022-08-19T04:28:04;100415.41;;;20.69;100.00
829;BME280;396;52.558;13.188;2022-08-19T04:30:31;100418.22;;;20.72;100.00
829;BME280;396;52.558;13.188;2022-08-19T04:33:04;100419.00;;;20.73;100.00
829;BME280;396;52.558;13.188;2022-08-19T04:35:35;100417.44;;;20.75;100.00
829;BME280;396;52.558;13.188;2022-08-19T04:38:02;100417.03;;;20.73;100.00
829;BME280;396;52.558;13.188;2022-08-19T04:40:28;100412.31;;;20.74;100.00
829;BME280;396;52.558;13.188;2022-08-19T04:43:13;100418.63;;;20.74;100.00
829;BME280;396;52.558;13.188;2022-08-19T04:45:41;100430.84;;;20.77;100.00
829;BME280;396;52.558;13.188;2022-08-19T04:48:09;100428.94;;;20.81;100.00
829;BME280;396;52.558;13.188;2022-08-19T04:50:36;100422.59;;;20.77;100.00
829;BME280;396;52.558;13.188;2022-08-19T04:53:02;100417.88;;;20.77;100.00
829;BME280;396;52.558;13.188;2022-08-19T04:55:30;100421.09;;;20.83;100.00
829;BME280;396;52.558;13.188;2022-08-19T04:57:56;100412.44;;;20.81;100.00
829;BME280;396;52.558;13.188;2022-08-19T05:00:23;100409.28;;;20.82;100.00
829;BME280;396;52.558;13.188;2022-08-19T05:02:49;100415.19;;;20.84;100.00
829;BME280;396;52.558;13.188;2022-08-19T05:05:17;100419.50;;;20.82;100.00
829;BME280;396;52.558;13.188;2022-08-19T05:07:45;100423.47;;;20.84;100.00
829;BME280;396;52.558;13.188;2022-08-19T05:10:11;100422.78;;;20.91;100.00
829;BME280;396;52.558;13.188;2022-08-19T05:12:38;100419.69;;;20.96;100.00
829;BME280;396;52.558;13.188;2022-08-19T05:15:06;100416.47;;;20.90;100.00
829;BME280;396;52.558;13.188;2022-08-19T05:17:33;100404.69;;;20.94;100.00
829;BME280;396;52.558;13.188;2022-08-19T05:20:00;100404.78;;;21.01;100.00
829;BME280;396;52.558;13.188;2022-08-19T05:22:51;100397.75;;;21.07;100.00
829;BME280;396;52.558;13.188;2022-08-19T05:25:20;100390.72;;;21.09;100.00
829;BME280;396;52.558;13.188;2022-08-19T05:27:47;100379.31;;;21.11;100.00
829;BME280;396;52.558;13.188;2022-08-19T05:30:14;100384.84;;;21.14;100.00
829;BME280;396;52.558;13.188;2022-08-19T05:32:41;100375.09;;;21.24;100.00
829;BME280;396;52.558;13.188;2022-08-19T05:35:08;100383.50;;;21.31;100.00
829;BME280;396;52.558;13.188;2022-08-19T05:37:34;100391.06;;;21.41;100.00
829;BME280;396;52.558;13.188;2022-08-19T05:40:03;100393.91;;;21.49;100.00
829;BME280;396;52.558;13.188;2022-08-19T05:42:30;100393.56;;;21.57;100.00
829;BME280;396;52.558;13.188;2022-08-19T05:44:56;100396.03;;;21.66;100.00
829;BME280;396;52.558;13.188;2022-08-19T05:47:23;100398.41;;;21.71;100.00
829;BME280;396;52.558;13.188;2022-08-19T05:49:54;100400.06;;;21.79;100.00
829;BME280;396;52.558;13.188;2022-08-19T05:52:21;100400.09;;;21.86;100.00
829;BME280;396;52.558;13.188;2022-08-19T05:54:48;100404.84;;;21.86;100.00
829;BME280;396;52.558;13.188;2022-08-19T05:57:18;100404.78;;;21.82;100.00
829;BME280;396;52.558;13.188;2022-08-19T05:59:44;100404.03;;;21.85;100.00
829;BME280;396;52.558;13.188;2022-08-19T06:02:13;100411.53;;;21.85;100.00
829;BME280;396;52.558;13.188;2022-08-19T06:04:40;100413.16;;;21.93;100.00
829;BME280;396;52.558;13.188;2022-08-19T06:07:07;100413.56;;;21.91;100.00
829;BME280;396;52.558;13.188;2022-08-19T06:09:34;100419.53;;;22.01;100.00
829;BME280;396;52.558;13.188;2022-08-19T06:12:02;100422.31;;;22.04;100.00
829;BME280;396;52.558;13.188;2022-08-19T06:14:33;100428.28;;;22.10;100.00
829;BME280;396;52.558;13.188;2022-08-19T06:17:01;100430.97;;;22.03;100.00
829;BME280;396;52.558;13.188;2022-08-19T06:19:29;100424.66;;;22.02;100.00
829;BME280;396;52.558;13.188;2022-08-19T06:21:57;100424.66;;;22.02;100.00
829;BME280;396;52.558;13.188;2022-08-19T06:24:25;100413.28;;;22.07;100.00
829;BME280;396;52.558;13.188;2022-08-19T06:26:54;100412.88;;;22.05;100.00
829;BME280;396;52.558;13.188;2022-08-19T06:29:23;100395.59;;;22.12;100.00
829;BME280;396;52.558;13.188;2022-08-19T06:31:54;100402.72;;;22.16;100.00
829;BME280;396;52.558;13.188;2022-08-19T06:34:21;100401.97;;;22.20;100.00
829;BME280;396;52.558;13.188;2022-08-19T06:36:50;100412.25;;;22.26;100.00
829;BME280;396;52.558;13.188;2022-08-19T06:39:20;100426.16;;;22.40;100.00
829;BME280;396;52.558;13.188;2022-08-19T06:41:51;100424.97;;;22.41;100.00
829;BME280;396;52.558;13.188;2022-08-19T06:44:20;100444.69;;;22.44;100.00
829;BME280;396;52.558;13.188;2022-08-19T06:46:47;100450.19;;;22.44;100.00
829;BME280;396;52.558;13.188;2022-08-19T06:49:16;100461.59;;;22.38;100.00
829;BME280;396;52.558;13.188;2022-08-19T06:51:44;100467.56;;;22.48;100.00
829;BME280;396;52.558;13.188;2022-08-19T06:54:13;100464.00;;;22.44;100.00
829;BME280;396;52.558;13.188;2022-08-19T06:56:39;100469.50;;;22.40;100.00
829;BME280;396;52.558;13.188;2022-08-19T06:59:08;100464.78;;;22.44;100.00
829;BME280;396;52.558;13.188;2022-08-19T07:01:36;100458.09;;;22.41;100.00
829;BME280;396;52.558;13.188;2022-08-19T07:04:04;100464.44;;;22.46;100.00
829;BME280;396;52.558;13.188;2022-08-19T07:06:32;100463.63;;;22.49;100.00
829;BME280;396;52.558;13.188;2022-08-19T07:08:59;100460.53;;;22.54;100.00
829;BME280;396;52.558;13.188;2022-08-19T07:11:25;100455.00;;;22.50;100.00
829;BME280;396;52.558;13.188;2022-08-19T07:13:55;100445.91;;;22.53;100.00
829;BME280;396;52.558;13.188;2022-08-19T07:16:22;100448.25;;;22.48;100.00
829;BME280;396;52.558;13.188;2022-08-19T07:18:49;100437.63;;;22.50;100.00
829;BME280;396;52.558;13.188;2022-08-19T07:21:18;100447.53;;;22.58;100.00
829;BME280;396;52.558;13.188;2022-08-19T07:23:46;100449.16;;;22.62;100.00
829;BME280;396;52.558;13.188;2022-08-19T07:26:16;100461.34;;;22.61;100.00
829;BME280;396;52.558;13.188;2022-08-19T07:28:44;100466.81;;;22.51;100.00
829;BME280;396;52.558;13.188;2022-08-19T07:31:12;100465.22;;;22.46;100.00
829;BME280;396;52.558;13.188;2022-08-19T07:33:40;100463.47;;;22.24;100.00
829;BME280;396;52.558;13.188;2022-08-19T07:36:10;100468.81;;;22.02;100.00
829;BME280;396;52.558;13.188;2022-08-19T07:38:38;100473.81;;;21.89;100.00
829;BME280;396;52.558;13.188;2022-08-19T07:41:08;100474.88;;;21.78;100.00
829;BME280;396;52.558;13.188;2022-08-19T07:43:35;100474.84;;;21.71;100.00
829;BME280;396;52.558;13.188;2022-08-19T07:46:01;100484.28;;;21.73;100.00
829;BME280;396;52.558;13.188;2022-08-19T07:48:28;100493.00;;;21.75;100.00
829;BME280;396;52.558;13.188;2022-08-19T07:50:57;100498.06;;;21.73;100.00
829;BME280;396;52.558;13.188;2022-08-19T07:53:25;100489.06;;;21.76;100.00
829;BME280;396;52.558;13.188;2022-08-19T07:55:51;100493.38;;;21.77;100.00
829;BME280;396;52.558;13.188;2022-08-19T07:58:21;100488.31;;;21.79;100.00
829;BME280;396;52.558;13.188;2022-08-19T08:00:49;100487.53;;;21.82;100.00
829;BME280;396;52.558;13.188;2022-08-19T08:03:18;100499.00;;;21.84;100.00
829;BME280;396;52.558;13.188;2022-08-19T08:05:46;100495.09;;;21.89;100.00
829;BME280;396;52.558;13.188;2022-08-19T08:08:30;100495.13;;;21.92;100.00
829;BME280;396;52.558;13.188;2022-08-19T08:11:17;100494.38;;;21.99;100.00
829;BME280;396;52.558;13.188;2022-08-19T08:13:45;100497.63;;;22.08;100.00
829;BME280;396;52.558;13.188;2022-08-19T08:16:13;100504.00;;;22.12;100.00
829;BME280;396;52.558;13.188;2022-08-19T08:18:40;100510.28;;;22.13;100.00
829;BME280;396;52.558;13.188;2022-08-19T08:21:08;100512.25;;;22.12;100.00
829;BME280;396;52.558;13.188;2022-08-19T08:23:35;100517.44;;;22.17;100.00
829;BME280;396;52.558;13.188;2022-08-19T08:26:02;100517.88;;;22.23;100.00
829;BME280;396;52.558;13.188;2022-08-19T08:28:29;100524.22;;;22.27;100.00
829;BME280;396;52.558;13.188;2022-08-19T08:30:57;100522.63;;;22.26;100.00
829;BME280;396;52.558;13.188;2022-08-19T08:33:27;100532.03;;;22.22;100.00
829;BME280;396;52.558;13.188;2022-08-19T08:35:55;100531.28;;;22.25;100.00
829;BME280;396;52.558;13.188;2022-08-19T08:38:21;100536.84;;;22.28;100.00
829;BME280;396;52.558;13.188;2022-08-19T08:40:50;100536.09;;;22.35;100.00
829;BME280;396;52.558;13.188;2022-08-19T08:43:23;100536.09;;;22.35;100.00
829;BME280;396;52.558;13.188;2022-08-19T08:45:57;100533.69;;;22.30;100.00
829;BME280;396;52.558;13.188;2022-08-19T08:48:33;100534.44;;;22.27;100.00
829;BME280;396;52.558;13.188;2022-08-19T08:51:03;100538.44;;;22.29;100.00
829;BME280;396;52.558;13.188;2022-08-19T08:53:32;100536.09;;;22.31;100.00
829;BME280;396;52.558;13.188;2022-08-19T08:56:01;100537.63;;;22.29;100.00
829;BME280;396;52.558;13.188;2022-08-19T08:58:32;100534.13;;;22.35;100.00
829;BME280;396;52.558;13.188;2022-08-19T09:01:09;100536.56;;;22.40;100.00
829;BME280;396;52.558;13.188;2022-08-19T09:03:39;100534.19;;;22.42;100.00
829;BME280;396;52.558;13.188;2022-08-19T09:06:07;100545.59;;;22.37;100.00
829;BME280;396;52.558;13.188;2022-08-19T09:08:43;100555.84;;;22.37;100.00
829;BME280;396;52.558;13.188;2022-08-19T09:11:15;100559.75;;;22.32;100.00
829;BME280;396;52.558;13.188;2022-08-19T09:14:02;100553.44;;;22.35;100.00
829;BME280;396;52.558;13.188;2022-08-19T09:16:33;100560.56;;;22.36;100.00
829;BME280;396;52.558;13.188;2022-08-19T09:19:04;100566.09;;;22.36;100.00
829;BME280;396;52.558;13.188;2022-08-19T09:21:32;100560.53;;;22.33;100.00
829;BME280;396;52.558;13.188;2022-08-19T09:23:59;100556.63;;;22.37;100.00
829;BME280;396;52.558;13.188;2022-08-19T09:26:27;100544.78;;;22.33;100.00
829;BME280;396;52.558;13.188;2022-08-19T09:28:54;100541.66;;;22.38;100.00
829;BME280;396;52.558;13.188;2022-08-19T09:31:25;100540.06;;;22.37;100.00
829;BME280;396;52.558;13.188;2022-08-19T09:33:52;100535.41;;;22.45;100.00
829;BME280;396;52.558;13.188;2022-08-19T09:36:25;100532.25;;;22.47;100.00
829;BME280;396;52.558;13.188;2022-08-19T09:38:55;100526.78;;;22.54;100.00
829;BME280;396;52.558;13.188;2022-08-19T09:41:23;100531.53;;;22.57;100.00
829;BME280;396;52.558;13.188;2022-08-19T09:43:52;100531.94;;;22.59;100.00
829;BME280;396;52.558;13.188;2022-08-19T09:46:19;100540.25;;;22.59;100.00
829;BME280;396;52.558;13.188;2022-08-19T09:48:47;100539.44;;;22.62;100.00
829;BME280;396;52.558;13.188;2022-08-19T09:51:17;100534.34;;;22.64;100.00
829;BME280;396;52.558;13.188;2022-08-19T09:53:47;100521.28;;;22.57;100.00
829;BME280;396;52.558;13.188;2022-08-19T09:56:16;100523.72;;;22.70;100.00
829;BME280;396;52.558;13.188;2022-08-19T09:58:43;100530.91;;;22.81;100.00
829;BME280;396;52.558;13.188;2022-08-19T10:01:15;100531.00;;;22.92;100.00
829;BME280;396;52.558;13.188;2022-08-19T10:03:42;100536.50;;;22.92;100.00
829;BME280;396;52.558;13.188;2022-08-19T10:06:08;100536.56;;;22.99;100.00
829;BME280;396;52.558;13.188;2022-08-19T10:08:36;100542.50;;;23.05;100.00
829;BME280;396;52.558;13.188;2022-08-19T10:11:06;100544.53;;;23.11;100.00
829;BME280;396;52.558;13.188;2022-08-19T10:13:33;100547.72;;;23.17;100.00
829;BME280;396;52.558;13.188;2022-08-19T10:16:04;100552.47;;;23.20;100.00
829;BME280;396;52.558;13.188;2022-08-19T10:18:31;100544.91;;;23.10;100.00
829;BME280;396;52.558;13.188;2022-08-19T10:21:04;100542.56;;;23.12;100.00
829;BME280;396;52.558;13.188;2022-08-19T10:23:33;100544.56;;;23.22;100.00
829;BME280;396;52.558;13.188;2022-08-19T10:26:02;100541.41;;;23.20;100.00
829;BME280;396;52.558;13.188;2022-08-19T10:28:32;100537.03;;;23.19;100.00
829;BME280;396;52.558;13.188;2022-08-19T10:31:03;100533.97;;;23.38;100.00
829;BME280;396;52.558;13.188;2022-08-19T10:33:31;100533.22;;;23.49;100.00
829;BME280;396;52.558;13.188;2022-08-19T10:35:59;100535.94;;;23.34;100.00
829;BME280;396;52.558;13.188;2022-08-19T10:38:25;100528.03;;;23.29;100.00
829;BME280;396;52.558;13.188;2022-08-19T10:40:53;100531.22;;;23.42;100.00
829;BME280;396;52.558;13.188;2022-08-19T10:43:20;100527.66;;;23.41;100.00
829;BME280;396;52.558;13.188;2022-08-19T10:45:52;100532.81;;;23.43;100.00
829;BME280;396;52.558;13.188;2022-08-19T10:48:19;100532.00;;;23.46;100.00
829;BME280;396;52.558;13.188;2022-08-19T10:50:45;100530.47;;;23.56;100.00
829;BME280;396;52.558;13.188;2022-08-19T10:53:29;100522.25;;;23.70;100.00
829;BME280;396;52.558;13.188;2022-08-19T10:55:55;100529.34;;;23.67;100.00
829;BME280;396;52.558;13.188;2022-08-19T10:58:39;100532.41;;;23.37;100.00
829;BME280;396;52.558;13.188;2022-08-19T11:01:08;100531.50;;;23.19;100.00
829;BME280;396;52.558;13.188;2022-08-19T11:03:34;100531.19;;;23.35;100.00
829;BME280;396;52.558;13.188;2022-08-19T11:06:03;100530.44;;;23.38;100.00
829;BME280;396;52.558;13.188;2022-08-19T11:08:30;100530.41;;;23.34;100.00
829;BME280;396;52.558;13.188;2022-08-19T11:10:59;100521.31;;;23.34;100.00
829;BME280;396;52.558;13.188;2022-08-19T11:13:26;100526.03;;;23.30;100.00
829;BME280;396;52.558;13.188;2022-08-19T11:15:58;100532.78;;;23.36;100.00
829;BME280;396;52.558;13.188;2022-08-19T11:18:26;100527.25;;;23.39;100.00
829;BME280;396;52.558;13.188;2022-08-19T11:20:52;100535.19;;;23.45;100.00
829;BME280;396;52.558;13.188;2022-08-19T11:23:19;100535.94;;;23.41;100.00
829;BME280;396;52.558;13.188;2022-08-19T11:25:46;100528.09;;;23.51;100.00
829;BME280;396;52.558;13.188;2022-08-19T11:28:12;100532.06;;;23.60;100.00
829;BME280;396;52.558;13.188;2022-08-19T11:30:39;100536.84;;;23.67;100.00
829;BME280;396;52.558;13.188;2022-08-19T11:33:05;100536.88;;;23.71;100.00
829;BME280;396;52.558;13.188;2022-08-19T11:35:33;100549.50;;;23.68;100.00
829;BME280;396;52.558;13.188;2022-08-19T11:38:00;100536.78;;;23.53;100.00
829;BME280;396;52.558;13.188;2022-08-19T11:40:27;100541.53;;;23.56;100.00
829;BME280;396;52.558;13.188;2022-08-19T11:42:54;100542.31;;;23.53;100.00
829;BME280;396;52.558;13.188;2022-08-19T11:45:21;100552.16;;;23.50;100.00
829;BME280;396;52.558;13.188;2022-08-19T11:47:47;100544.69;;;23.47;100.00
829;BME280;396;52.558;13.188;2022-08-19T11:50:14;100546.56;;;23.32;100.00
829;BME280;396;52.558;13.188;2022-08-19T11:52:43;100548.94;;;23.30;100.00
829;BME280;396;52.558;13.188;2022-08-19T11:55:10;100551.72;;;23.30;100.00
829;BME280;396;52.558;13.188;2022-08-19T11:57:38;100568.31;;;23.30;100.00
829;BME280;396;52.558;13.188;2022-08-19T12:00:07;100561.97;;;23.30;100.00
829;BME280;396;52.558;13.188;2022-08-19T12:02:34;100581.34;;;23.33;100.00
829;BME280;396;52.558;13.188;2022-08-19T12:05:00;100570.66;;;23.32;100.00
829;BME280;396;52.558;13.188;2022-08-19T12:07:28;100574.22;;;23.32;100.00
829;BME280;396;52.558;13.188;2022-08-19T12:09:58;100576.59;;;23.30;100.00
829;BME280;396;52.558;13.188;2022-08-19T12:12:24;100566.66;;;23.19;100.00
829;BME280;396;52.558;13.188;2022-08-19T12:14:52;100568.13;;;23.02;100.00
829;BME280;396;52.558;13.188;2022-08-19T12:17:21;100562.13;;;22.89;100.00
829;BME280;396;52.558;13.188;2022-08-19T12:19:48;100561.81;;;22.94;100.00
829;BME280;396;52.558;13.188;2022-08-19T12:22:15;100570.91;;;22.98;100.00
829;BME280;396;52.558;13.188;2022-08-19T12:24:41;100567.34;;;23.01;100.00
829;BME280;396;52.558;13.188;2022-08-19T12:27:09;100571.38;;;23.14;100.00
829;BME280;396;52.558;13.188;2022-08-19T12:29:36;100567.88;;;23.28;100.00
829;BME280;396;52.558;13.188;2022-08-19T12:32:02;100581.78;;;23.46;100.00
829;BME280;396;52.558;13.188;2022-08-19T12:34:30;100576.31;;;23.57;100.00
829;BME280;396;52.558;13.188;2022-08-19T12:36:57;100580.72;;;23.65;100.00
829;BME280;396;52.558;13.188;2022-08-19T12:39:24;100580.34;;;23.70;100.00
829;BME280;396;52.558;13.188;2022-08-19T12:41:51;100581.50;;;23.73;100.00
829;BME280;396;52.558;13.188;2022-08-19T12:44:19;100580.28;;;23.63;100.00
829;BME280;396;52.558;13.188;2022-08-19T12:46:46;100596.84;;;23.59;100.00
829;BME280;396;52.558;13.188;2022-08-19T12:49:14;100588.56;;;23.56;100.00
829;BME280;396;52.558;13.188;2022-08-19T12:51:40;100595.66;;;23.53;100.00
829;BME280;396;52.558;13.188;2022-08-19T12:54:07;100592.84;;;23.50;100.00
829;BME280;396;52.558;13.188;2022-08-19T12:56:34;100589.31;;;23.53;100.00
829;BME280;396;52.558;13.188;2022-08-19T12:59:01;100592.13;;;23.56;100.00
829;BME280;396;52.558;13.188;2022-08-19T13:01:28;100584.59;;;23.53;100.00
829;BME280;396;52.558;13.188;2022-08-19T13:03:58;100581.03;;;23.53;100.00
829;BME280;396;52.558;13.188;2022-08-19T13:06:24;100586.56;;;23.53;100.00
829;BME280;396;52.558;13.188;2022-08-19T13:08:51;100585.78;;;23.52;100.00
829;BME280;396;52.558;13.188;2022-08-19T13:11:19;100586.53;;;23.46;100.00
829;BME280;396;52.558;13.188;2022-08-19T13:13:50;100581.06;;;23.60;100.00
829;BME280;396;52.558;13.188;2022-08-19T13:16:18;100581.50;;;23.65;100.00
829;BME280;396;52.558;13.188;2022-08-19T13:18:49;100582.31;;;23.73;100.00
829;BME280;396;52.558;13.188;2022-08-19T13:21:18;100580.34;;;23.81;100.00
829;BME280;396;52.558;13.188;2022-08-19T13:23:46;100579.22;;;24.00;100.00
829;BME280;396;52.558;13.188;2022-08-19T13:26:13;100587.94;;;24.23;98.98
829;BME280;396;52.558;13.188;2022-08-19T13:28:41;100581.22;;;24.31;98.13
829;BME280;396;52.558;13.188;2022-08-19T13:31:27;100585.22;;;24.52;95.85
829;BME280;396;52.558;13.188;2022-08-19T13:34:14;100591.53;;;24.66;94.95
829;BME280;396;52.558;13.188;2022-08-19T13:36:40;100594.69;;;24.76;94.77